sensor_id;sensor_type;location;lat;lon;timestamp;P1;durP1;ratioP1;P2;durP2;ratioP2
47365;SDS011;33105;47.964;7.982;2023-02-10T00:01:12;20.27;;;9.97;;
47365;SDS011;33105;47.964;7.982;2023-02-10T00:04:16;21.80;;;10.03;;
47365;SDS011;33105;47.964;7.982;2023-02-10T00:07:17;20.37;;;10.33;;
47365;SDS011;33105;47.964;7.982;2023-02-10T00:10:18;19.13;;;10.47;;
47365;SDS011;33105;47.964;7.982;2023-02-10T00:13:20;20.23;;;10.30;;
47365;SDS011;33105;47.964;7.982;2023-02-10T00:16:21;19.10;;;10.07;;
47365;SDS011;33105;47.964;7.982;2023-02-10T00:19:23;22.43;;;11.63;;
47365;SDS011;33105;47.964;7.982;2023-02-10T00:22:26;22.60;;;10.83;;
47365;SDS011;33105;47.964;7.982;2023-02-10T00:25:27;23.33;;;11.00;;
47365;SDS011;33105;47.964;7.982;2023-02-10T00:28:28;22.13;;;11.77;;
47365;SDS011;33105;47.964;7.982;2023-02-10T00:31:29;18.47;;;10.43;;
47365;SDS011;33105;47.964;7.982;2023-02-10T00:34:31;22.40;;;11.27;;
47365;SDS011;33105;47.964;7.982;2023-02-10T00:37:32;23.57;;;11.37;;
47365;SDS011;33105;47.964;7.982;2023-02-10T00:40:33;22.97;;;12.67;;
47365;SDS011;33105;47.964;7.982;2023-02-10T00:43:34;26.30;;;12.83;;
47365;SDS011;33105;47.964;7.982;2023-02-10T00:46:37;22.50;;;11.73;;
47365;SDS011;33105;47.964;7.982;2023-02-10T00:49:39;26.63;;;11.70;;
47365;SDS011;33105;47.964;7.982;2023-02-10T00:52:40;25.73;;;11.67;;
47365;SDS011;33105;47.964;7.982;2023-02-10T00:55:41;22.30;;;11.63;;
47365;SDS011;33105;47.964;7.982;2023-02-10T00:58:42;22.50;;;12.80;;
47365;SDS011;33105;47.964;7.982;2023-02-10T01:01:44;23.33;;;12.53;;
47365;SDS011;33105;47.964;7.982;2023-02-10T01:04:45;23.20;;;12.97;;
47365;SDS011;33105;47.964;7.982;2023-02-10T01:07:46;23.53;;;12.60;;
47365;SDS011;33105;47.964;7.982;2023-02-10T01:10:47;28.90;;;14.33;;
47365;SDS011;33105;47.964;7.982;2023-02-10T01:13:48;25.30;;;13.70;;
47365;SDS011;33105;47.964;7.982;2023-02-10T01:16:49;30.47;;;13.43;;
47365;SDS011;33105;47.964;7.982;2023-02-10T01:19:51;24.93;;;12.83;;
47365;SDS011;33105;47.964;7.982;2023-02-10T01:22:52;21.87;;;12.27;;
47365;SDS011;33105;47.964;7.982;2023-02-10T01:25:54;24.93;;;12.90;;
47365;SDS011;33105;47.964;7.982;2023-02-10T01:28:55;28.40;;;12.30;;
47365;SDS011;33105;47.964;7.982;2023-02-10T01:31:56;24.67;;;12.30;;
47365;SDS011;33105;47.964;7.982;2023-02-10T01:34:57;25.17;;;13.10;;
47365;SDS011;33105;47.964;7.982;2023-02-10T01:37:58;23.50;;;12.63;;
47365;SDS011;33105;47.964;7.982;2023-02-10T01:41:00;26.13;;;14.07;;
47365;SDS011;33105;47.964;7.982;2023-02-10T01:44:03;25.10;;;14.63;;
47365;SDS011;33105;47.964;7.982;2023-02-10T01:47:06;27.97;;;15.50;;
47365;SDS011;33105;47.964;7.982;2023-02-10T01:50:08;29.20;;;14.93;;
47365;SDS011;33105;47.964;7.982;2023-02-10T01:53:09;32.63;;;15.40;;
47365;SDS011;33105;47.964;7.982;2023-02-10T01:56:13;29.10;;;15.57;;
47365;SDS011;33105;47.964;7.982;2023-02-10T01:59:16;29.00;;;15.97;;
47365;SDS011;33105;47.964;7.982;2023-02-10T02:02:20;31.50;;;14.87;;
47365;SDS011;33105;47.964;7.982;2023-02-10T02:08:34;28.50;;;16.13;;
47365;SDS011;33105;47.964;7.982;2023-02-10T02:11:46;31.40;;;16.37;;
47365;SDS011;33105;47.964;7.982;2023-02-10T02:14:56;33.77;;;17.00;;
47365;SDS011;33105;47.964;7.982;2023-02-10T02:18:10;38.63;;;18.07;;
47365;SDS011;33105;47.964;7.982;2023-02-10T02:21:38;35.60;;;18.37;;
47365;SDS011;33105;47.964;7.982;2023-02-10T02:25:15;31.00;;;17.00;;
47365;SDS011;33105;47.964;7.982;2023-02-10T02:28:38;34.87;;;18.60;;
47365;SDS011;33105;47.964;7.982;2023-02-10T02:35:28;36.60;;;18.43;;
47365;SDS011;33105;47.964;7.982;2023-02-10T02:38:38;37.77;;;17.50;;
47365;SDS011;33105;47.964;7.982;2023-02-10T02:41:41;31.50;;;17.57;;
47365;SDS011;33105;47.964;7.982;2023-02-10T02:44:43;33.23;;;17.30;;
47365;SDS011;33105;47.964;7.982;2023-02-10T02:51:19;33.47;;;18.43;;
47365;SDS011;33105;47.964;7.982;2023-02-10T02:58:06;31.70;;;17.20;;
47365;SDS011;33105;47.964;7.982;2023-02-10T03:04:55;38.50;;;19.37;;
47365;SDS011;33105;47.964;7.982;2023-02-10T03:07:59;37.97;;;19.37;;
47365;SDS011;33105;47.964;7.982;2023-02-10T03:11:00;41.80;;;20.40;;
47365;SDS011;33105;47.964;7.982;2023-02-10T03:14:01;44.87;;;20.83;;
47365;SDS011;33105;47.964;7.982;2023-02-10T03:17:03;39.83;;;20.80;;
47365;SDS011;33105;47.964;7.982;2023-02-10T03:20:04;35.80;;;19.43;;
47365;SDS011;33105;47.964;7.982;2023-02-10T03:23:06;35.43;;;18.20;;
47365;SDS011;33105;47.964;7.982;2023-02-10T03:26:07;34.53;;;17.73;;
47365;SDS011;33105;47.964;7.982;2023-02-10T03:29:09;32.57;;;18.17;;
47365;SDS011;33105;47.964;7.982;2023-02-10T03:32:11;32.93;;;17.20;;
47365;SDS011;33105;47.964;7.982;2023-02-10T03:35:12;34.87;;;17.57;;
47365;SDS011;33105;47.964;7.982;2023-02-10T03:38:14;40.13;;;19.67;;
47365;SDS011;33105;47.964;7.982;2023-02-10T03:41:15;39.73;;;19.47;;
47365;SDS011;33105;47.964;7.982;2023-02-10T03:44:16;37.50;;;18.50;;
47365;SDS011;33105;47.964;7.982;2023-02-10T03:47:18;36.00;;;18.27;;
47365;SDS011;33105;47.964;7.982;2023-02-10T03:50:19;35.70;;;19.13;;
47365;SDS011;33105;47.964;7.982;2023-02-10T03:53:20;38.03;;;19.37;;
47365;SDS011;33105;47.964;7.982;2023-02-10T03:56:21;42.57;;;21.80;;
47365;SDS011;33105;47.964;7.982;2023-02-10T03:59:22;43.43;;;22.23;;
47365;SDS011;33105;47.964;7.982;2023-02-10T04:02:23;35.53;;;19.83;;
47365;SDS011;33105;47.964;7.982;2023-02-10T04:05:24;34.37;;;18.47;;
47365;SDS011;33105;47.964;7.982;2023-02-10T04:08:25;33.30;;;17.27;;
47365;SDS011;33105;47.964;7.982;2023-02-10T04:11:27;36.30;;;17.60;;
47365;SDS011;33105;47.964;7.982;2023-02-10T04:14:28;33.20;;;16.67;;
47365;SDS011;33105;47.964;7.982;2023-02-10T04:17:29;33.23;;;16.73;;
47365;SDS011;33105;47.964;7.982;2023-02-10T04:20:30;30.50;;;16.53;;
47365;SDS011;33105;47.964;7.982;2023-02-10T04:23:32;31.73;;;16.13;;
47365;SDS011;33105;47.964;7.982;2023-02-10T04:26:33;38.17;;;17.40;;
47365;SDS011;33105;47.964;7.982;2023-02-10T04:29:34;28.50;;;15.73;;
47365;SDS011;33105;47.964;7.982;2023-02-10T04:32:40;28.93;;;16.23;;
47365;SDS011;33105;47.964;7.982;2023-02-10T04:35:41;29.17;;;16.03;;
47365;SDS011;33105;47.964;7.982;2023-02-10T04:38:44;30.33;;;15.57;;
47365;SDS011;33105;47.964;7.982;2023-02-10T04:41:45;38.73;;;16.63;;
47365;SDS011;33105;47.964;7.982;2023-02-10T04:44:47;34.63;;;15.27;;
47365;SDS011;33105;47.964;7.982;2023-02-10T04:47:48;27.03;;;15.00;;
47365;SDS011;33105;47.964;7.982;2023-02-10T04:50:49;30.50;;;16.00;;
47365;SDS011;33105;47.964;7.982;2023-02-10T04:53:50;35.40;;;16.63;;
47365;SDS011;33105;47.964;7.982;2023-02-10T04:56:51;34.03;;;16.63;;
47365;SDS011;33105;47.964;7.982;2023-02-10T04:59:53;37.13;;;18.20;;
47365;SDS011;33105;47.964;7.982;2023-02-10T05:02:54;37.60;;;18.20;;
47365;SDS011;33105;47.964;7.982;2023-02-10T05:05:55;30.97;;;16.67;;
47365;SDS011;33105;47.964;7.982;2023-02-10T05:08:56;33.57;;;17.30;;
47365;SDS011;33105;47.964;7.982;2023-02-10T05:11:57;30.53;;;15.77;;
47365;SDS011;33105;47.964;7.982;2023-02-10T05:14:58;32.20;;;14.83;;
47365;SDS011;33105;47.964;7.982;2023-02-10T05:18:00;29.07;;;15.07;;
47365;SDS011;33105;47.964;7.982;2023-02-10T05:21:01;27.27;;;14.47;;
47365;SDS011;33105;47.964;7.982;2023-02-10T05:24:03;34.97;;;15.50;;
47365;SDS011;33105;47.964;7.982;2023-02-10T05:27:04;33.60;;;16.47;;
47365;SDS011;33105;47.964;7.982;2023-02-10T05:30:06;32.30;;;16.60;;
47365;SDS011;33105;47.964;7.982;2023-02-10T05:33:09;30.53;;;15.37;;
47365;SDS011;33105;47.964;7.982;2023-02-10T05:36:11;31.87;;;16.33;;
47365;SDS011;33105;47.964;7.982;2023-02-10T05:39:12;29.13;;;14.53;;
47365;SDS011;33105;47.964;7.982;2023-02-10T05:42:26;31.67;;;15.27;;
47365;SDS011;33105;47.964;7.982;2023-02-10T05:45:27;28.80;;;15.63;;
47365;SDS011;33105;47.964;7.982;2023-02-10T05:48:28;29.70;;;14.30;;
47365;SDS011;33105;47.964;7.982;2023-02-10T05:51:30;29.57;;;14.90;;
47365;SDS011;33105;47.964;7.982;2023-02-10T05:54:31;32.07;;;15.40;;
47365;SDS011;33105;47.964;7.982;2023-02-10T05:57:32;33.00;;;16.07;;
47365;SDS011;33105;47.964;7.982;2023-02-10T06:00:33;31.00;;;16.60;;
47365;SDS011;33105;47.964;7.982;2023-02-10T06:03:34;32.50;;;17.07;;
47365;SDS011;33105;47.964;7.982;2023-02-10T06:06:35;31.57;;;16.23;;
47365;SDS011;33105;47.964;7.982;2023-02-10T06:09:37;36.50;;;18.53;;
47365;SDS011;33105;47.964;7.982;2023-02-10T06:12:39;31.70;;;16.13;;
47365;SDS011;33105;47.964;7.982;2023-02-10T06:15:40;34.37;;;17.40;;
47365;SDS011;33105;47.964;7.982;2023-02-10T06:18:43;34.57;;;16.67;;
47365;SDS011;33105;47.964;7.982;2023-02-10T06:21:49;37.20;;;17.40;;
47365;SDS011;33105;47.964;7.982;2023-02-10T06:24:50;35.67;;;17.27;;
47365;SDS011;33105;47.964;7.982;2023-02-10T06:27:51;37.30;;;16.83;;
47365;SDS011;33105;47.964;7.982;2023-02-10T06:30:53;30.33;;;16.47;;
47365;SDS011;33105;47.964;7.982;2023-02-10T06:33:54;34.17;;;16.43;;
47365;SDS011;33105;47.964;7.982;2023-02-10T06:36:56;32.33;;;14.73;;
47365;SDS011;33105;47.964;7.982;2023-02-10T06:39:57;33.67;;;15.23;;
47365;SDS011;33105;47.964;7.982;2023-02-10T06:42:58;32.43;;;15.73;;
47365;SDS011;33105;47.964;7.982;2023-02-10T06:46:00;37.63;;;17.53;;
47365;SDS011;33105;47.964;7.982;2023-02-10T06:49:01;32.10;;;15.23;;
47365;SDS011;33105;47.964;7.982;2023-02-10T06:52:03;30.60;;;15.33;;
47365;SDS011;33105;47.964;7.982;2023-02-10T06:55:05;29.30;;;14.63;;
47365;SDS011;33105;47.964;7.982;2023-02-10T06:58:07;27.30;;;14.37;;
47365;SDS011;33105;47.964;7.982;2023-02-10T07:01:09;30.87;;;15.50;;
47365;SDS011;33105;47.964;7.982;2023-02-10T07:04:12;32.73;;;17.00;;
47365;SDS011;33105;47.964;7.982;2023-02-10T07:07:13;40.00;;;16.97;;
47365;SDS011;33105;47.964;7.982;2023-02-10T07:10:14;33.73;;;16.43;;
47365;SDS011;33105;47.964;7.982;2023-02-10T07:13:16;32.30;;;15.87;;
47365;SDS011;33105;47.964;7.982;2023-02-10T07:16:17;34.40;;;16.67;;
47365;SDS011;33105;47.964;7.982;2023-02-10T07:19:19;37.00;;;19.80;;
47365;SDS011;33105;47.964;7.982;2023-02-10T07:22:20;38.97;;;18.50;;
47365;SDS011;33105;47.964;7.982;2023-02-10T07:25:22;36.50;;;16.17;;
47365;SDS011;33105;47.964;7.982;2023-02-10T07:28:24;34.23;;;17.47;;
47365;SDS011;33105;47.964;7.982;2023-02-10T07:31:25;32.80;;;15.23;;
47365;SDS011;33105;47.964;7.982;2023-02-10T07:34:26;28.83;;;14.77;;
47365;SDS011;33105;47.964;7.982;2023-02-10T07:37:28;27.40;;;13.50;;
47365;SDS011;33105;47.964;7.982;2023-02-10T07:40:29;28.30;;;14.07;;
47365;SDS011;33105;47.964;7.982;2023-02-10T07:43:31;25.97;;;13.87;;
47365;SDS011;33105;47.964;7.982;2023-02-10T07:46:41;28.33;;;13.73;;
47365;SDS011;33105;47.964;7.982;2023-02-10T07:49:42;29.23;;;13.40;;
47365;SDS011;33105;47.964;7.982;2023-02-10T07:52:43;27.83;;;13.80;;
47365;SDS011;33105;47.964;7.982;2023-02-10T07:55:45;30.40;;;15.63;;
47365;SDS011;33105;47.964;7.982;2023-02-10T07:58:46;28.70;;;14.80;;
47365;SDS011;33105;47.964;7.982;2023-02-10T08:01:47;29.00;;;14.67;;
47365;SDS011;33105;47.964;7.982;2023-02-10T08:04:48;27.10;;;14.77;;
47365;SDS011;33105;47.964;7.982;2023-02-10T08:07:50;34.03;;;15.33;;
47365;SDS011;33105;47.964;7.982;2023-02-10T08:10:51;33.60;;;16.53;;
47365;SDS011;33105;47.964;7.982;2023-02-10T08:13:52;36.67;;;18.13;;
47365;SDS011;33105;47.964;7.982;2023-02-10T08:16:53;34.67;;;17.20;;
47365;SDS011;33105;47.964;7.982;2023-02-10T08:19:54;34.53;;;16.37;;
47365;SDS011;33105;47.964;7.982;2023-02-10T08:22:56;36.83;;;17.43;;
47365;SDS011;33105;47.964;7.982;2023-02-10T08:26:01;33.80;;;16.07;;
47365;SDS011;33105;47.964;7.982;2023-02-10T08:29:04;39.23;;;17.20;;
47365;SDS011;33105;47.964;7.982;2023-02-10T08:32:05;28.90;;;14.50;;
47365;SDS011;33105;47.964;7.982;2023-02-10T08:35:07;28.37;;;15.77;;
47365;SDS011;33105;47.964;7.982;2023-02-10T08:38:08;31.67;;;17.07;;
47365;SDS011;33105;47.964;7.982;2023-02-10T08:41:12;30.17;;;14.90;;
47365;SDS011;33105;47.964;7.982;2023-02-10T08:44:14;30.30;;;13.93;;
47365;SDS011;33105;47.964;7.982;2023-02-10T08:47:15;24.43;;;13.50;;
47365;SDS011;33105;47.964;7.982;2023-02-10T08:50:17;24.40;;;12.63;;
47365;SDS011;33105;47.964;7.982;2023-02-10T08:53:18;28.27;;;13.77;;
47365;SDS011;33105;47.964;7.982;2023-02-10T08:56:20;28.63;;;15.17;;
47365;SDS011;33105;47.964;7.982;2023-02-10T08:59:21;30.87;;;15.77;;
47365;SDS011;33105;47.964;7.982;2023-02-10T09:02:22;29.40;;;15.43;;
47365;SDS011;33105;47.964;7.982;2023-02-10T09:05:23;30.37;;;14.77;;
47365;SDS011;33105;47.964;7.982;2023-02-10T09:08:25;30.23;;;14.83;;
47365;SDS011;33105;47.964;7.982;2023-02-10T09:11:26;21.83;;;12.57;;
47365;SDS011;33105;47.964;7.982;2023-02-10T09:14:29;23.33;;;13.77;;
47365;SDS011;33105;47.964;7.982;2023-02-10T09:17:31;28.47;;;15.00;;
47365;SDS011;33105;47.964;7.982;2023-02-10T09:20:32;26.97;;;14.87;;
47365;SDS011;33105;47.964;7.982;2023-02-10T09:23:34;27.98;;;14.32;;
47365;SDS011;33105;47.964;7.982;2023-02-10T09:26:36;26.43;;;15.83;;
47365;SDS011;33105;47.964;7.982;2023-02-10T09:29:37;32.30;;;16.43;;
47365;SDS011;33105;47.964;7.982;2023-02-10T09:32:38;30.30;;;14.52;;
47365;SDS011;33105;47.964;7.982;2023-02-10T09:35:39;27.60;;;14.37;;
47365;SDS011;33105;47.964;7.982;2023-02-10T09:38:41;25.02;;;13.02;;
47365;SDS011;33105;47.964;7.982;2023-02-10T09:41:50;32.00;;;14.23;;
47365;SDS011;33105;47.964;7.982;2023-02-10T09:45:02;32.92;;;17.23;;
47365;SDS011;33105;47.964;7.982;2023-02-10T09:48:18;29.60;;;15.23;;
47365;SDS011;33105;47.964;7.982;2023-02-10T09:51:58;36.63;;;17.73;;
47365;SDS011;33105;47.964;7.982;2023-02-10T09:55:13;28.73;;;15.77;;
47365;SDS011;33105;47.964;7.982;2023-02-10T09:58:21;27.58;;;14.38;;
47365;SDS011;33105;47.964;7.982;2023-02-10T10:04:38;26.02;;;14.55;;
47365;SDS011;33105;47.964;7.982;2023-02-10T10:07:48;27.92;;;15.02;;
47365;SDS011;33105;47.964;7.982;2023-02-10T10:10:54;30.08;;;15.88;;
47365;SDS011;33105;47.964;7.982;2023-02-10T10:14:00;26.33;;;15.05;;
47365;SDS011;33105;47.964;7.982;2023-02-10T10:20:25;28.48;;;15.80;;
47365;SDS011;33105;47.964;7.982;2023-02-10T10:23:33;28.15;;;16.42;;
47365;SDS011;33105;47.964;7.982;2023-02-10T10:27:08;28.42;;;16.70;;
47365;SDS011;33105;47.964;7.982;2023-02-10T10:30:19;30.42;;;17.67;;
47365;SDS011;33105;47.964;7.982;2023-02-10T10:33:35;30.10;;;18.30;;
47365;SDS011;33105;47.964;7.982;2023-02-10T10:36:49;40.22;;;19.55;;
47365;SDS011;33105;47.964;7.982;2023-02-10T10:39:55;36.72;;;20.65;;
47365;SDS011;33105;47.964;7.982;2023-02-10T10:43:00;36.20;;;21.00;;
47365;SDS011;33105;47.964;7.982;2023-02-10T10:46:06;42.33;;;22.85;;
47365;SDS011;33105;47.964;7.982;2023-02-10T10:49:14;42.00;;;21.88;;
47365;SDS011;33105;47.964;7.982;2023-02-10T10:52:29;36.88;;;22.55;;
47365;SDS011;33105;47.964;7.982;2023-02-10T10:55:38;42.95;;;22.95;;
47365;SDS011;33105;47.964;7.982;2023-02-10T10:58:42;38.95;;;21.83;;
47365;SDS011;33105;47.964;7.982;2023-02-10T11:01:46;40.53;;;23.08;;
47365;SDS011;33105;47.964;7.982;2023-02-10T11:05:05;41.97;;;22.55;;
47365;SDS011;33105;47.964;7.982;2023-02-10T11:08:21;42.17;;;22.88;;
47365;SDS011;33105;47.964;7.982;2023-02-10T11:14:37;33.55;;;20.75;;
47365;SDS011;33105;47.964;7.982;2023-02-10T11:17:45;38.45;;;21.60;;
47365;SDS011;33105;47.964;7.982;2023-02-10T11:20:55;36.00;;;20.95;;
47365;SDS011;33105;47.964;7.982;2023-02-10T11:24:02;39.28;;;22.23;;
47365;SDS011;33105;47.964;7.982;2023-02-10T11:27:05;35.80;;;20.60;;
47365;SDS011;33105;47.964;7.982;2023-02-10T11:30:47;34.78;;;20.40;;
47365;SDS011;33105;47.964;7.982;2023-02-10T11:33:41;37.75;;;21.17;;
47365;SDS011;33105;47.964;7.982;2023-02-10T11:36:42;49.30;;;24.52;;
47365;SDS011;33105;47.964;7.982;2023-02-10T11:39:45;39.78;;;22.95;;
47365;SDS011;33105;47.964;7.982;2023-02-10T11:42:48;43.20;;;25.38;;
47365;SDS011;33105;47.964;7.982;2023-02-10T11:45:53;41.97;;;25.85;;
47365;SDS011;33105;47.964;7.982;2023-02-10T11:49:00;42.35;;;24.77;;
47365;SDS011;33105;47.964;7.982;2023-02-10T11:52:03;48.80;;;25.90;;
47365;SDS011;33105;47.964;7.982;2023-02-10T11:55:08;45.25;;;26.20;;
47365;SDS011;33105;47.964;7.982;2023-02-10T12:02:03;47.92;;;27.48;;
47365;SDS011;33105;47.964;7.982;2023-02-10T12:21:55;51.15;;;27.83;;
47365;SDS011;33105;47.964;7.982;2023-02-10T12:25:08;47.78;;;28.67;;
47365;SDS011;33105;47.964;7.982;2023-02-10T12:38:06;45.33;;;25.40;;
47365;SDS011;33105;47.964;7.982;2023-02-10T12:41:32;43.40;;;26.38;;
47365;SDS011;33105;47.964;7.982;2023-02-10T12:48:16;47.45;;;27.02;;
47365;SDS011;33105;47.964;7.982;2023-02-10T12:55:34;42.53;;;26.15;;
47365;SDS011;33105;47.964;7.982;2023-02-10T12:58:21;49.80;;;28.20;;
47365;SDS011;33105;47.964;7.982;2023-02-10T13:04:43;45.70;;;26.67;;
47365;SDS011;33105;47.964;7.982;2023-02-10T13:07:56;47.53;;;28.38;;
47365;SDS011;33105;47.964;7.982;2023-02-10T13:11:02;48.85;;;27.67;;
47365;SDS011;33105;47.964;7.982;2023-02-10T13:17:16;51.00;;;28.38;;
47365;SDS011;33105;47.964;7.982;2023-02-10T13:20:33;45.90;;;28.42;;
47365;SDS011;33105;47.964;7.982;2023-02-10T13:23:56;49.10;;;28.00;;
47365;SDS011;33105;47.964;7.982;2023-02-10T13:37:05;50.58;;;30.17;;
47365;SDS011;33105;47.964;7.982;2023-02-10T13:40:16;44.15;;;28.40;;
47365;SDS011;33105;47.964;7.982;2023-02-10T13:46:32;44.72;;;28.05;;
47365;SDS011;33105;47.964;7.982;2023-02-10T13:49:34;47.83;;;27.92;;
47365;SDS011;33105;47.964;7.982;2023-02-10T13:52:55;45.53;;;27.67;;
47365;SDS011;33105;47.964;7.982;2023-02-10T14:02:20;43.08;;;27.08;;
47365;SDS011;33105;47.964;7.982;2023-02-10T14:05:28;47.45;;;27.77;;
47365;SDS011;33105;47.964;7.982;2023-02-10T14:08:33;45.25;;;27.70;;
47365;SDS011;33105;47.964;7.982;2023-02-10T14:11:39;46.08;;;28.42;;
47365;SDS011;33105;47.964;7.982;2023-02-10T14:14:42;51.78;;;30.38;;
47365;SDS011;33105;47.964;7.982;2023-02-10T14:17:51;50.13;;;27.95;;
47365;SDS011;33105;47.964;7.982;2023-02-10T14:20:57;44.50;;;27.75;;
47365;SDS011;33105;47.964;7.982;2023-02-10T14:24:09;46.08;;;27.42;;
47365;SDS011;33105;47.964;7.982;2023-02-10T14:27:15;46.00;;;27.00;;
47365;SDS011;33105;47.964;7.982;2023-02-10T14:30:20;45.72;;;27.23;;
47365;SDS011;33105;47.964;7.982;2023-02-10T14:33:27;45.28;;;26.02;;
47365;SDS011;33105;47.964;7.982;2023-02-10T14:36:32;46.97;;;26.58;;
47365;SDS011;33105;47.964;7.982;2023-02-10T14:39:33;47.97;;;27.08;;
47365;SDS011;33105;47.964;7.982;2023-02-10T14:42:34;46.15;;;25.65;;
47365;SDS011;33105;47.964;7.982;2023-02-10T14:45:36;41.35;;;26.50;;
47365;SDS011;33105;47.964;7.982;2023-02-10T14:48:39;43.75;;;26.05;;
47365;SDS011;33105;47.964;7.982;2023-02-10T14:51:43;43.05;;;25.20;;
47365;SDS011;33105;47.964;7.982;2023-02-10T14:54:45;46.90;;;26.42;;
47365;SDS011;33105;47.964;7.982;2023-02-10T14:57:48;47.95;;;27.23;;
47365;SDS011;33105;47.964;7.982;2023-02-10T15:01:02;47.95;;;25.08;;
47365;SDS011;33105;47.964;7.982;2023-02-10T15:04:18;41.88;;;25.08;;
47365;SDS011;33105;47.964;7.982;2023-02-10T15:07:23;45.42;;;26.05;;
47365;SDS011;33105;47.964;7.982;2023-02-10T15:13:38;44.10;;;26.23;;
47365;SDS011;33105;47.964;7.982;2023-02-10T15:16:44;44.90;;;26.15;;
47365;SDS011;33105;47.964;7.982;2023-02-10T15:26:04;46.30;;;25.73;;
47365;SDS011;33105;47.964;7.982;2023-02-10T15:29:10;46.00;;;27.20;;
47365;SDS011;33105;47.964;7.982;2023-02-10T15:32:18;40.50;;;25.08;;
47365;SDS011;33105;47.964;7.982;2023-02-10T15:35:21;45.55;;;26.02;;
47365;SDS011;33105;47.964;7.982;2023-02-10T15:38:23;43.75;;;24.55;;
47365;SDS011;33105;47.964;7.982;2023-02-10T15:41:44;42.47;;;24.95;;
47365;SDS011;33105;47.964;7.982;2023-02-10T15:45:19;39.97;;;24.52;;
47365;SDS011;33105;47.964;7.982;2023-02-10T15:48:22;41.97;;;25.23;;
47365;SDS011;33105;47.964;7.982;2023-02-10T15:51:24;43.30;;;25.60;;
47365;SDS011;33105;47.964;7.982;2023-02-10T15:54:26;43.67;;;25.52;;
47365;SDS011;33105;47.964;7.982;2023-02-10T15:57:29;43.00;;;25.00;;
47365;SDS011;33105;47.964;7.982;2023-02-10T16:00:34;49.85;;;26.70;;
47365;SDS011;33105;47.964;7.982;2023-02-10T16:03:37;44.88;;;26.02;;
47365;SDS011;33105;47.964;7.982;2023-02-10T16:06:38;45.20;;;23.75;;
47365;SDS011;33105;47.964;7.982;2023-02-10T16:09:40;42.60;;;24.70;;
47365;SDS011;33105;47.964;7.982;2023-02-10T16:12:41;47.45;;;24.08;;
47365;SDS011;33105;47.964;7.982;2023-02-10T16:15:43;43.15;;;24.98;;
47365;SDS011;33105;47.964;7.982;2023-02-10T16:18:45;43.50;;;26.35;;
47365;SDS011;33105;47.964;7.982;2023-02-10T16:21:48;48.58;;;25.27;;
47365;SDS011;33105;47.964;7.982;2023-02-10T16:24:49;44.97;;;25.52;;
47365;SDS011;33105;47.964;7.982;2023-02-10T16:27:50;45.17;;;25.38;;
47365;SDS011;33105;47.964;7.982;2023-02-10T16:30:52;43.55;;;24.23;;
47365;SDS011;33105;47.964;7.982;2023-02-10T16:33:53;45.45;;;25.48;;
47365;SDS011;33105;47.964;7.982;2023-02-10T16:36:56;41.78;;;25.40;;
47365;SDS011;33105;47.964;7.982;2023-02-10T16:39:58;47.05;;;26.15;;
47365;SDS011;33105;47.964;7.982;2023-02-10T16:42:59;47.92;;;26.25;;
47365;SDS011;33105;47.964;7.982;2023-02-10T16:46:00;47.17;;;25.55;;
47365;SDS011;33105;47.964;7.982;2023-02-10T16:49:01;48.92;;;27.25;;
47365;SDS011;33105;47.964;7.982;2023-02-10T16:52:02;45.10;;;25.83;;
47365;SDS011;33105;47.964;7.982;2023-02-10T16:55:04;50.28;;;27.05;;
47365;SDS011;33105;47.964;7.982;2023-02-10T16:58:05;49.67;;;27.40;;
47365;SDS011;33105;47.964;7.982;2023-02-10T17:01:07;50.70;;;27.13;;
47365;SDS011;33105;47.964;7.982;2023-02-10T17:04:08;45.92;;;25.88;;
47365;SDS011;33105;47.964;7.982;2023-02-10T17:07:10;46.45;;;25.73;;
47365;SDS011;33105;47.964;7.982;2023-02-10T17:10:13;49.63;;;28.40;;
47365;SDS011;33105;47.964;7.982;2023-02-10T17:13:22;48.40;;;27.67;;
47365;SDS011;33105;47.964;7.982;2023-02-10T17:16:30;46.97;;;27.73;;
47365;SDS011;33105;47.964;7.982;2023-02-10T17:19:35;43.83;;;25.60;;
47365;SDS011;33105;47.964;7.982;2023-02-10T17:22:36;50.58;;;27.55;;
47365;SDS011;33105;47.964;7.982;2023-02-10T17:25:37;47.72;;;26.52;;
47365;SDS011;33105;47.964;7.982;2023-02-10T17:28:39;54.25;;;28.45;;
47365;SDS011;33105;47.964;7.982;2023-02-10T17:31:40;47.72;;;27.50;;
47365;SDS011;33105;47.964;7.982;2023-02-10T17:34:42;53.63;;;26.52;;
47365;SDS011;33105;47.964;7.982;2023-02-10T17:37:43;48.03;;;27.48;;
47365;SDS011;33105;47.964;7.982;2023-02-10T17:40:45;47.30;;;25.45;;
47365;SDS011;33105;47.964;7.982;2023-02-10T17:43:46;51.80;;;25.85;;
47365;SDS011;33105;47.964;7.982;2023-02-10T17:46:49;50.38;;;28.13;;
47365;SDS011;33105;47.964;7.982;2023-02-10T17:49:55;48.03;;;26.83;;
47365;SDS011;33105;47.964;7.982;2023-02-10T17:52:56;51.45;;;28.27;;
47365;SDS011;33105;47.964;7.982;2023-02-10T17:55:57;48.00;;;26.80;;
47365;SDS011;33105;47.964;7.982;2023-02-10T17:58:58;49.78;;;27.55;;
47365;SDS011;33105;47.964;7.982;2023-02-10T18:01:59;53.03;;;28.33;;
47365;SDS011;33105;47.964;7.982;2023-02-10T18:05:02;49.10;;;26.80;;
47365;SDS011;33105;47.964;7.982;2023-02-10T18:08:03;45.72;;;26.95;;
47365;SDS011;33105;47.964;7.982;2023-02-10T18:11:04;48.90;;;27.55;;
47365;SDS011;33105;47.964;7.982;2023-02-10T18:14:05;46.92;;;24.95;;
47365;SDS011;33105;47.964;7.982;2023-02-10T18:17:07;45.97;;;25.25;;
47365;SDS011;33105;47.964;7.982;2023-02-10T18:20:09;50.90;;;27.20;;
47365;SDS011;33105;47.964;7.982;2023-02-10T18:23:11;51.40;;;27.48;;
47365;SDS011;33105;47.964;7.982;2023-02-10T18:26:12;51.72;;;26.67;;
47365;SDS011;33105;47.964;7.982;2023-02-10T18:29:14;52.03;;;28.55;;
47365;SDS011;33105;47.964;7.982;2023-02-10T18:32:16;49.67;;;29.43;;
47365;SDS011;33105;47.964;7.982;2023-02-10T18:35:17;58.60;;;30.75;;
47365;SDS011;33105;47.964;7.982;2023-02-10T18:38:18;66.27;;;36.83;;
47365;SDS011;33105;47.964;7.982;2023-02-10T18:41:19;64.77;;;33.93;;
47365;SDS011;33105;47.964;7.982;2023-02-10T18:44:20;60.93;;;32.00;;
47365;SDS011;33105;47.964;7.982;2023-02-10T18:47:22;63.55;;;31.75;;
47365;SDS011;33105;47.964;7.982;2023-02-10T18:50:23;60.07;;;31.27;;
47365;SDS011;33105;47.964;7.982;2023-02-10T18:53:24;65.73;;;35.20;;
47365;SDS011;33105;47.964;7.982;2023-02-10T18:56:27;61.20;;;32.67;;
47365;SDS011;33105;47.964;7.982;2023-02-10T18:59:28;59.70;;;32.53;;
47365;SDS011;33105;47.964;7.982;2023-02-10T19:02:29;54.53;;;30.53;;
47365;SDS011;33105;47.964;7.982;2023-02-10T19:05:31;47.27;;;26.87;;
47365;SDS011;33105;47.964;7.982;2023-02-10T19:08:32;52.17;;;27.87;;
47365;SDS011;33105;47.964;7.982;2023-02-10T19:11:33;49.43;;;28.63;;
47365;SDS011;33105;47.964;7.982;2023-02-10T19:14:35;51.90;;;30.60;;
47365;SDS011;33105;47.964;7.982;2023-02-10T19:17:36;58.37;;;31.43;;
47365;SDS011;33105;47.964;7.982;2023-02-10T19:20:37;68.53;;;36.47;;
47365;SDS011;33105;47.964;7.982;2023-02-10T19:23:38;60.13;;;32.70;;
47365;SDS011;33105;47.964;7.982;2023-02-10T19:26:41;94.67;;;39.20;;
47365;SDS011;33105;47.964;7.982;2023-02-10T19:29:42;60.83;;;30.90;;
47365;SDS011;33105;47.964;7.982;2023-02-10T19:32:45;57.67;;;29.70;;
47365;SDS011;33105;47.964;7.982;2023-02-10T19:35:47;71.77;;;34.13;;